Chamblee, Georgia
Current Conditions -  °F | °C
As of 7:53 AM on Saturday 01 Nov 2014 (Local Time) from KPDK Reporting Station
Scattered Clouds Scattered Clouds  
Wind Chill: 28°   Ceiling: Unl
Heat Index: 38°   Visibility: 10mi
Dew Point: 27°   Wind: 21mph
Humidity: 65%   Direction: 320°NW
Pressure: 29.95"   Gusts: 38mph
Location:  33.89°N, 84.3°W
Report Text: KPDK 011153Z 32018G33KT 10SM SCT031 03/M03 A2995 RMK AO2 PK WND 31033/1149 SLP148 70004 T00331028 10039 20033 53012
Loading
Personal Weather Stations






























Interactive Weather Map
Tropical Storm Tracking
New forecast layout! Learn more

10-Day Weather Forecast

Advertisements
Track Severe Weather on mobile